Portada
METAR-TAF:

METAR-TAF

Aeropuertos :

Bou Saâda, Argelia

latitud: 35-20N, longitud: 004-12E, altitud: 461 m

Observación

El informe se hizo hace 7 horas y 48 minutos, a las 18:00 UTC
Viento 2 kt del norte
Temperatura 13°C
Humedad 72%
Presión 1020 hPa
Visibilidad: 8000 m
Escasas nubes a una altura de 3000 ft

METAR: DAAD 231800Z 35002KT 8000 FEW030 13/08 Q1020

Hora: 02:48 (01:48 UTC)

Pronóstico

El informe se hizo hace 8 horas y 48 minutos, a las 17:00 UTC
Pronóstico válido del 23 a las 18 UTC al 24 a las 03 UTC
Viento 6 kt del noroeste
Visibilidad: 8000 m
Escasas nubes a una altura de 3000 ft

TAF: DAAD 231700Z 2318/2403 32006KT 8000 FEW030

Observaciones y pronósticos meteorológicos de más de 4000 aeropuertos (mensajes METAR y TAF).

Los puntos amarillos y rojos representan las estaciones disponibles.

Ponga el ratón en el punto deseado para ver el nombre de la estación.

Haga clic para ver las observaciones y los pronósticos meteorológicos.

Para cambiar el mapa : haga clic en los botones verdes con una cruz de color negro para hacer un zoom, en el botón verde con un guión para alejar o en las flechas verdes para mapas adyacentes.


METAR-TAF: